sensor_id;sensor_type;location;lat;lon;timestamp;pressure;altitude;pressure_sealevel;temperature;humidity
39301;BME280;25019;42.626;23.380;2024-03-08T00:02:24;94352.28;;;3.49;100.00
39301;BME280;25019;42.626;23.380;2024-03-08T00:04:50;94383.56;;;3.70;100.00
39301;BME280;25019;42.626;23.380;2024-03-08T00:07:16;94489.72;;;4.42;100.00
39301;BME280;25019;42.626;23.380;2024-03-08T00:09:42;94434.59;;;4.15;100.00
39301;BME280;25019;42.626;23.380;2024-03-08T00:12:08;94482.78;;;4.54;100.00
39301;BME280;25019;42.626;23.380;2024-03-08T00:14:35;94482.56;;;4.62;100.00
39301;BME280;25019;42.626;23.380;2024-03-08T00:17:02;94480.72;;;4.70;100.00
39301;BME280;25019;42.626;23.380;2024-03-08T00:19:28;94477.91;;;4.64;100.00
39301;BME280;25019;42.626;23.380;2024-03-08T00:21:54;94483.78;;;4.67;100.00
39301;BME280;25019;42.626;23.380;2024-03-08T00:24:20;94477.16;;;4.50;100.00
39301;BME280;25019;42.626;23.380;2024-03-08T00:26:50;94491.09;;;4.58;100.00
39301;BME280;25019;42.626;23.380;2024-03-08T00:29:16;94457.38;;;4.34;100.00
39301;BME280;25019;42.626;23.380;2024-03-08T00:31:41;94487.88;;;4.49;100.00
39301;BME280;25019;42.626;23.380;2024-03-08T00:34:07;94482.03;;;4.40;100.00
39301;BME280;25019;42.626;23.380;2024-03-08T00:36:35;94480.81;;;4.36;100.00
39301;BME280;25019;42.626;23.380;2024-03-08T00:39:01;94455.22;;;4.18;100.00
39301;BME280;25019;42.626;23.380;2024-03-08T00:41:28;94457.84;;;4.11;100.00
39301;BME280;25019;42.626;23.380;2024-03-08T00:43:53;94468.94;;;4.20;100.00
39301;BME280;25019;42.626;23.380;2024-03-08T00:46:19;94448.34;;;4.10;100.00
39301;BME280;25019;42.626;23.380;2024-03-08T00:48:45;94406.56;;;3.88;100.00
39301;BME280;25019;42.626;23.380;2024-03-08T00:51:10;94457.22;;;4.23;100.00
39301;BME280;25019;42.626;23.380;2024-03-08T00:53:36;94453.78;;;4.15;100.00
39301;BME280;25019;42.626;23.380;2024-03-08T00:56:02;94460.47;;;4.11;100.00
39301;BME280;25019;42.626;23.380;2024-03-08T00:58:29;94452.41;;;4.13;100.00
39301;BME280;25019;42.626;23.380;2024-03-08T01:00:56;94388.38;;;3.80;100.00
39301;BME280;25019;42.626;23.380;2024-03-08T01:03:22;94377.88;;;3.80;100.00
39301;BME280;25019;42.626;23.380;2024-03-08T01:05:48;94337.34;;;3.49;100.00
39301;BME280;25019;42.626;23.380;2024-03-08T01:08:14;94445.47;;;4.25;100.00
39301;BME280;25019;42.626;23.380;2024-03-08T01:10:39;94344.81;;;3.59;100.00
39301;BME280;25019;42.626;23.380;2024-03-08T01:13:05;94438.84;;;4.16;100.00
39301;BME280;25019;42.626;23.380;2024-03-08T01:15:31;94436.22;;;4.16;100.00
39301;BME280;25019;42.626;23.380;2024-03-08T01:17:56;94334.34;;;3.25;100.00
39301;BME280;25019;42.626;23.380;2024-03-08T01:20:22;94415.25;;;3.82;100.00
39301;BME280;25019;42.626;23.380;2024-03-08T01:22:48;94443.09;;;4.03;100.00
39301;BME280;25019;42.626;23.380;2024-03-08T01:25:14;94356.50;;;3.56;100.00
39301;BME280;25019;42.626;23.380;2024-03-08T01:27:39;94435.59;;;4.07;100.00
39301;BME280;25019;42.626;23.380;2024-03-08T01:30:06;94428.19;;;3.90;100.00
39301;BME280;25019;42.626;23.380;2024-03-08T01:32:32;94360.38;;;3.47;100.00
39301;BME280;25019;42.626;23.380;2024-03-08T01:34:57;94343.63;;;3.48;100.00
39301;BME280;25019;42.626;23.380;2024-03-08T01:37:23;94389.81;;;3.83;100.00
39301;BME280;25019;42.626;23.380;2024-03-08T01:39:49;94363.56;;;3.63;100.00
39301;BME280;25019;42.626;23.380;2024-03-08T01:42:15;94320.78;;;3.35;100.00
39301;BME280;25019;42.626;23.380;2024-03-08T01:44:43;94425.91;;;4.08;100.00
39301;BME280;25019;42.626;23.380;2024-03-08T01:47:10;94304.69;;;3.18;100.00
39301;BME280;25019;42.626;23.380;2024-03-08T01:49:37;94309.53;;;3.14;100.00
39301;BME280;25019;42.626;23.380;2024-03-08T01:52:03;94432.41;;;3.98;100.00
39301;BME280;25019;42.626;23.380;2024-03-08T01:54:30;94314.38;;;3.18;100.00
39301;BME280;25019;42.626;23.380;2024-03-08T01:56:56;94388.81;;;3.70;100.00
39301;BME280;25019;42.626;23.380;2024-03-08T01:59:25;94364.59;;;3.55;100.00
39301;BME280;25019;42.626;23.380;2024-03-08T02:01:55;94396.88;;;3.82;100.00
39301;BME280;25019;42.626;23.380;2024-03-08T02:04:21;94400.09;;;3.84;100.00
39301;BME280;25019;42.626;23.380;2024-03-08T02:06:47;94396.25;;;3.94;100.00
39301;BME280;25019;42.626;23.380;2024-03-08T02:09:14;94385.78;;;3.73;100.00
39301;BME280;25019;42.626;23.380;2024-03-08T02:11:41;94372.06;;;3.65;100.00
39301;BME280;25019;42.626;23.380;2024-03-08T02:14:07;94425.72;;;4.02;100.00
39301;BME280;25019;42.626;23.380;2024-03-08T02:16:32;94427.34;;;4.03;100.00
39301;BME280;25019;42.626;23.380;2024-03-08T02:18:58;94313.97;;;3.34;100.00
39301;BME280;25019;42.626;23.380;2024-03-08T02:21:24;94394.81;;;3.91;100.00
39301;BME280;25019;42.626;23.380;2024-03-08T02:23:51;94427.72;;;4.14;100.00
39301;BME280;25019;42.626;23.380;2024-03-08T02:26:18;94434.75;;;4.20;100.00
39301;BME280;25019;42.626;23.380;2024-03-08T02:28:45;94435.78;;;4.19;100.00
39301;BME280;25019;42.626;23.380;2024-03-08T02:31:11;94335.09;;;3.59;100.00
39301;BME280;25019;42.626;23.380;2024-03-08T02:33:37;94376.44;;;3.84;100.00
39301;BME280;25019;42.626;23.380;2024-03-08T02:36:03;94437.59;;;4.25;100.00
39301;BME280;25019;42.626;23.380;2024-03-08T02:38:29;94346.59;;;3.72;100.00
39301;BME280;25019;42.626;23.380;2024-03-08T02:40:55;94375.41;;;3.92;100.00
39301;BME280;25019;42.626;23.380;2024-03-08T02:43:22;94434.09;;;4.38;100.00
39301;BME280;25019;42.626;23.380;2024-03-08T02:45:47;94370.34;;;3.97;100.00
39301;BME280;25019;42.626;23.380;2024-03-08T02:48:14;94357.22;;;3.97;100.00
39301;BME280;25019;42.626;23.380;2024-03-08T02:50:41;94423.81;;;4.37;100.00
39301;BME280;25019;42.626;23.380;2024-03-08T02:53:11;94450.03;;;4.57;100.00
39301;BME280;25019;42.626;23.380;2024-03-08T02:55:38;94447.81;;;4.47;100.00
39301;BME280;25019;42.626;23.380;2024-03-08T02:58:04;94435.56;;;4.27;100.00
39301;BME280;25019;42.626;23.380;2024-03-08T03:00:30;94440.38;;;4.37;100.00
39301;BME280;25019;42.626;23.380;2024-03-08T03:02:57;94305.25;;;3.47;100.00
39301;BME280;25019;42.626;23.380;2024-03-08T03:05:23;94366.13;;;3.89;100.00
39301;BME280;25019;42.626;23.380;2024-03-08T03:07:50;94384.91;;;4.00;100.00
39301;BME280;25019;42.626;23.380;2024-03-08T03:10:19;94394.75;;;4.11;100.00
39301;BME280;25019;42.626;23.380;2024-03-08T03:12:48;94408.25;;;4.28;100.00
39301;BME280;25019;42.626;23.380;2024-03-08T03:15:15;94408.91;;;4.17;100.00
39301;BME280;25019;42.626;23.380;2024-03-08T03:17:48;94459.19;;;4.41;100.00
39301;BME280;25019;42.626;23.380;2024-03-08T03:20:14;94380.31;;;3.82;100.00
39301;BME280;25019;42.626;23.380;2024-03-08T03:22:41;94407.94;;;3.91;100.00
39301;BME280;25019;42.626;23.380;2024-03-08T03:25:08;94379.91;;;3.78;100.00
39301;BME280;25019;42.626;23.380;2024-03-08T03:27:35;94432.75;;;4.15;100.00
39301;BME280;25019;42.626;23.380;2024-03-08T03:30:01;94363.16;;;3.72;100.00
39301;BME280;25019;42.626;23.380;2024-03-08T03:33:04;94465.03;;;4.36;100.00
39301;BME280;25019;42.626;23.380;2024-03-08T03:35:32;94379.09;;;3.78;100.00
39301;BME280;25019;42.626;23.380;2024-03-08T03:37:58;94474.56;;;4.37;100.00
39301;BME280;25019;42.626;23.380;2024-03-08T03:40:28;94468.47;;;4.43;100.00
39301;BME280;25019;42.626;23.380;2024-03-08T03:42:54;94375.06;;;3.75;100.00
39301;BME280;25019;42.626;23.380;2024-03-08T03:45:20;94457.78;;;4.31;100.00
39301;BME280;25019;42.626;23.380;2024-03-08T03:47:46;94455.78;;;4.20;100.00
39301;BME280;25019;42.626;23.380;2024-03-08T03:50:12;94389.19;;;3.81;100.00
39301;BME280;25019;42.626;23.380;2024-03-08T03:52:38;94477.19;;;4.37;100.00
39301;BME280;25019;42.626;23.380;2024-03-08T03:55:04;94429.16;;;4.10;100.00
39301;BME280;25019;42.626;23.380;2024-03-08T03:57:30;94485.06;;;4.37;100.00
39301;BME280;25019;42.626;23.380;2024-03-08T03:59:56;94480.63;;;4.38;100.00
39301;BME280;25019;42.626;23.380;2024-03-08T04:02:25;94396.69;;;3.84;100.00
39301;BME280;25019;42.626;23.380;2024-03-08T04:04:54;94398.28;;;3.85;100.00
39301;BME280;25019;42.626;23.380;2024-03-08T04:07:22;94451.00;;;3.97;100.00
39301;BME280;25019;42.626;23.380;2024-03-08T04:09:48;94451.03;;;3.83;100.00
39301;BME280;25019;42.626;23.380;2024-03-08T04:12:14;94468.59;;;3.89;100.00
39301;BME280;25019;42.626;23.380;2024-03-08T04:14:42;94493.66;;;3.99;100.00
39301;BME280;25019;42.626;23.380;2024-03-08T04:17:08;94455.88;;;3.66;100.00
39301;BME280;25019;42.626;23.380;2024-03-08T04:19:38;94501.97;;;3.89;100.00
39301;BME280;25019;42.626;23.380;2024-03-08T04:22:05;94398.97;;;3.20;100.00
39301;BME280;25019;42.626;23.380;2024-03-08T04:24:33;94481.56;;;3.78;100.00
39301;BME280;25019;42.626;23.380;2024-03-08T04:26:59;94503.38;;;3.92;100.00
39301;BME280;25019;42.626;23.380;2024-03-08T04:29:24;94471.25;;;3.69;100.00
39301;BME280;25019;42.626;23.380;2024-03-08T04:31:50;94465.22;;;3.62;100.00
39301;BME280;25019;42.626;23.380;2024-03-08T04:34:22;94512.88;;;3.93;100.00
39301;BME280;25019;42.626;23.380;2024-03-08T04:36:48;94457.31;;;3.69;100.00
39301;BME280;25019;42.626;23.380;2024-03-08T04:39:14;94363.03;;;3.20;100.00
39301;BME280;25019;42.626;23.380;2024-03-08T04:41:41;94455.28;;;3.78;100.00
39301;BME280;25019;42.626;23.380;2024-03-08T04:44:10;94488.22;;;3.94;100.00
39301;BME280;25019;42.626;23.380;2024-03-08T04:46:36;94519.50;;;4.15;100.00
39301;BME280;25019;42.626;23.380;2024-03-08T04:49:01;94462.94;;;3.79;100.00
39301;BME280;25019;42.626;23.380;2024-03-08T04:51:27;94295.41;;;2.68;100.00
39301;BME280;25019;42.626;23.380;2024-03-08T04:53:53;94426.22;;;3.59;100.00
39301;BME280;25019;42.626;23.380;2024-03-08T04:56:19;94521.16;;;4.03;100.00
39301;BME280;25019;42.626;23.380;2024-03-08T04:58:45;94520.13;;;3.97;100.00
39301;BME280;25019;42.626;23.380;2024-03-08T05:01:14;94531.47;;;3.98;100.00
39301;BME280;25019;42.626;23.380;2024-03-08T05:03:40;94513.50;;;3.68;100.00
39301;BME280;25019;42.626;23.380;2024-03-08T05:06:06;94542.81;;;3.85;100.00
39301;BME280;25019;42.626;23.380;2024-03-08T05:08:32;94483.78;;;3.60;100.00
39301;BME280;25019;42.626;23.380;2024-03-08T05:10:58;94531.88;;;3.95;100.00
39301;BME280;25019;42.626;23.380;2024-03-08T05:13:24;94540.56;;;3.95;100.00
39301;BME280;25019;42.626;23.380;2024-03-08T05:15:49;94515.69;;;3.64;100.00
39301;BME280;25019;42.626;23.380;2024-03-08T05:18:16;94529.25;;;3.61;100.00
39301;BME280;25019;42.626;23.380;2024-03-08T05:20:41;94464.59;;;3.13;100.00
39301;BME280;25019;42.626;23.380;2024-03-08T05:23:07;94550.06;;;3.69;100.00
39301;BME280;25019;42.626;23.380;2024-03-08T05:25:33;94544.41;;;3.66;100.00
39301;BME280;25019;42.626;23.380;2024-03-08T05:27:59;94529.66;;;3.65;100.00
39301;BME280;25019;42.626;23.380;2024-03-08T05:30:25;94564.22;;;3.75;100.00
39301;BME280;25019;42.626;23.380;2024-03-08T05:32:50;94474.66;;;3.09;100.00
39301;BME280;25019;42.626;23.380;2024-03-08T05:35:16;94547.81;;;3.46;100.00
39301;BME280;25019;42.626;23.380;2024-03-08T05:37:42;94572.88;;;3.49;100.00
39301;BME280;25019;42.626;23.380;2024-03-08T05:40:08;94558.28;;;3.19;100.00
39301;BME280;25019;42.626;23.380;2024-03-08T05:42:37;94574.19;;;3.11;100.00
39301;BME280;25019;42.626;23.380;2024-03-08T05:45:05;94577.38;;;2.99;100.00
39301;BME280;25019;42.626;23.380;2024-03-08T05:47:32;94527.56;;;2.58;100.00
39301;BME280;25019;42.626;23.380;2024-03-08T05:50:01;94582.75;;;2.84;100.00
39301;BME280;25019;42.626;23.380;2024-03-08T05:52:27;94589.63;;;2.85;100.00
39301;BME280;25019;42.626;23.380;2024-03-08T05:54:52;94474.44;;;2.35;100.00
39301;BME280;25019;42.626;23.380;2024-03-08T05:57:18;94595.50;;;2.88;100.00
39301;BME280;25019;42.626;23.380;2024-03-08T05:59:44;94535.13;;;2.32;100.00
39301;BME280;25019;42.626;23.380;2024-03-08T06:02:10;94533.53;;;2.38;100.00
39301;BME280;25019;42.626;23.380;2024-03-08T06:04:36;94602.50;;;2.80;100.00
39301;BME280;25019;42.626;23.380;2024-03-08T06:07:02;94496.69;;;2.11;100.00
39301;BME280;25019;42.626;23.380;2024-03-08T06:09:29;94553.69;;;2.37;100.00
39301;BME280;25019;42.626;23.380;2024-03-08T06:11:55;94549.00;;;2.26;100.00
39301;BME280;25019;42.626;23.380;2024-03-08T06:14:22;94613.47;;;2.91;100.00
39301;BME280;25019;42.626;23.380;2024-03-08T06:16:48;94619.66;;;2.76;100.00
39301;BME280;25019;42.626;23.380;2024-03-08T06:19:15;94619.19;;;3.08;100.00
39301;BME280;25019;42.626;23.380;2024-03-08T06:21:41;94552.91;;;2.85;100.00
39301;BME280;25019;42.626;23.380;2024-03-08T06:24:06;94620.09;;;3.35;100.00
39301;BME280;25019;42.626;23.380;2024-03-08T06:26:32;94602.47;;;3.22;100.00
39301;BME280;25019;42.626;23.380;2024-03-08T06:28:58;94510.28;;;2.70;100.00
39301;BME280;25019;42.626;23.380;2024-03-08T06:31:24;94631.88;;;3.66;100.00
39301;BME280;25019;42.626;23.380;2024-03-08T06:33:50;94419.94;;;2.17;100.00
39301;BME280;25019;42.626;23.380;2024-03-08T06:36:16;94578.22;;;3.07;100.00
39301;BME280;25019;42.626;23.380;2024-03-08T06:38:48;94580.44;;;3.03;100.00
39301;BME280;25019;42.626;23.380;2024-03-08T06:41:14;94529.03;;;2.67;100.00
39301;BME280;25019;42.626;23.380;2024-03-08T06:43:44;94615.97;;;3.06;100.00
39301;BME280;25019;42.626;23.380;2024-03-08T06:46:10;94594.97;;;3.06;100.00
39301;BME280;25019;42.626;23.380;2024-03-08T06:48:38;94564.25;;;2.99;100.00
39301;BME280;25019;42.626;23.380;2024-03-08T06:51:04;94520.63;;;2.85;100.00
39301;BME280;25019;42.626;23.380;2024-03-08T06:53:31;94532.41;;;3.16;100.00
39301;BME280;25019;42.626;23.380;2024-03-08T06:55:59;94611.13;;;3.85;100.00
39301;BME280;25019;42.626;23.380;2024-03-08T06:58:25;94590.25;;;3.56;100.00
39301;BME280;25019;42.626;23.380;2024-03-08T07:00:51;94567.66;;;3.69;100.00
39301;BME280;25019;42.626;23.380;2024-03-08T07:03:24;94569.03;;;3.78;100.00
39301;BME280;25019;42.626;23.380;2024-03-08T07:05:49;94480.75;;;3.30;100.00
39301;BME280;25019;42.626;23.380;2024-03-08T07:08:16;94563.59;;;3.86;100.00
39301;BME280;25019;42.626;23.380;2024-03-08T07:10:42;94639.63;;;4.28;100.00
39301;BME280;25019;42.626;23.380;2024-03-08T07:13:08;94574.13;;;3.86;100.00
39301;BME280;25019;42.626;23.380;2024-03-08T07:15:34;94578.19;;;3.89;100.00
39301;BME280;25019;42.626;23.380;2024-03-08T07:18:01;94596.13;;;4.32;100.00
39301;BME280;25019;42.626;23.380;2024-03-08T07:20:27;94495.69;;;3.77;100.00
39301;BME280;25019;42.626;23.380;2024-03-08T07:22:54;94614.94;;;4.49;100.00
39301;BME280;25019;42.626;23.380;2024-03-08T07:25:20;94605.03;;;4.45;100.00
39301;BME280;25019;42.626;23.380;2024-03-08T07:27:53;94650.03;;;5.02;100.00
39301;BME280;25019;42.626;23.380;2024-03-08T07:30:21;94565.53;;;4.72;100.00
39301;BME280;25019;42.626;23.380;2024-03-08T07:33:06;94632.94;;;5.25;100.00
39301;BME280;25019;42.626;23.380;2024-03-08T07:35:33;94645.06;;;5.33;100.00
39301;BME280;25019;42.626;23.380;2024-03-08T07:38:05;94626.47;;;5.28;100.00
39301;BME280;25019;42.626;23.380;2024-03-08T07:40:34;94558.19;;;4.80;100.00
39301;BME280;25019;42.626;23.380;2024-03-08T07:43:00;94476.56;;;4.48;100.00
39301;BME280;25019;42.626;23.380;2024-03-08T07:45:26;94492.78;;;4.84;100.00
39301;BME280;25019;42.626;23.380;2024-03-08T07:47:52;94460.31;;;4.58;100.00
39301;BME280;25019;42.626;23.380;2024-03-08T07:50:19;94606.22;;;5.21;100.00
39301;BME280;25019;42.626;23.380;2024-03-08T07:52:45;94605.69;;;5.45;100.00
39301;BME280;25019;42.626;23.380;2024-03-08T07:55:10;94599.88;;;5.36;100.00
39301;BME280;25019;42.626;23.380;2024-03-08T07:57:36;94545.41;;;4.84;100.00
39301;BME280;25019;42.626;23.380;2024-03-08T08:00:06;94656.44;;;5.72;100.00
39301;BME280;25019;42.626;23.380;2024-03-08T08:02:34;94618.94;;;5.70;100.00
39301;BME280;25019;42.626;23.380;2024-03-08T08:05:01;94614.75;;;5.62;100.00
39301;BME280;25019;42.626;23.380;2024-03-08T08:07:27;94599.00;;;5.49;100.00
39301;BME280;25019;42.626;23.380;2024-03-08T08:09:53;94551.53;;;5.17;100.00
39301;BME280;25019;42.626;23.380;2024-03-08T08:12:19;94623.66;;;6.00;100.00
39301;BME280;25019;42.626;23.380;2024-03-08T08:14:45;94552.53;;;5.87;100.00
39301;BME280;25019;42.626;23.380;2024-03-08T08:17:11;94565.34;;;5.83;100.00
39301;BME280;25019;42.626;23.380;2024-03-08T08:19:37;94650.88;;;6.44;100.00
39301;BME280;25019;42.626;23.380;2024-03-08T08:22:04;94564.66;;;5.94;100.00
39301;BME280;25019;42.626;23.380;2024-03-08T08:24:30;94567.66;;;5.98;100.00
39301;BME280;25019;42.626;23.380;2024-03-08T08:26:56;94533.00;;;6.20;100.00
39301;BME280;25019;42.626;23.380;2024-03-08T08:29:22;94652.00;;;6.99;100.00
39301;BME280;25019;42.626;23.380;2024-03-08T08:31:48;94655.38;;;6.88;100.00
39301;BME280;25019;42.626;23.380;2024-03-08T08:34:16;94650.97;;;7.00;100.00
39301;BME280;25019;42.626;23.380;2024-03-08T08:36:44;94599.00;;;6.82;100.00
39301;BME280;25019;42.626;23.380;2024-03-08T08:39:10;94607.34;;;6.98;100.00
39301;BME280;25019;42.626;23.380;2024-03-08T08:41:39;94555.13;;;6.63;100.00
39301;BME280;25019;42.626;23.380;2024-03-08T08:44:08;94613.50;;;6.92;100.00
39301;BME280;25019;42.626;23.380;2024-03-08T08:46:38;94579.47;;;6.83;100.00
39301;BME280;25019;42.626;23.380;2024-03-08T08:49:05;94529.63;;;6.75;100.00
39301;BME280;25019;42.626;23.380;2024-03-08T08:51:32;94392.00;;;6.04;100.00
39301;BME280;25019;42.626;23.380;2024-03-08T08:53:59;94494.16;;;6.52;100.00
39301;BME280;25019;42.626;23.380;2024-03-08T08:56:25;94575.19;;;7.19;100.00
39301;BME280;25019;42.626;23.380;2024-03-08T08:58:52;94528.91;;;6.98;100.00
39301;BME280;25019;42.626;23.380;2024-03-08T09:01:19;94576.94;;;7.26;100.00
39301;BME280;25019;42.626;23.380;2024-03-08T09:03:45;94557.31;;;6.84;100.00
39301;BME280;25019;42.626;23.380;2024-03-08T09:06:16;94504.16;;;6.25;100.00
39301;BME280;25019;42.626;23.380;2024-03-08T09:08:42;94609.16;;;6.60;100.00
39301;BME280;25019;42.626;23.380;2024-03-08T09:11:10;94574.13;;;6.27;100.00
39301;BME280;25019;42.626;23.380;2024-03-08T09:13:35;94619.47;;;6.62;100.00
39301;BME280;25019;42.626;23.380;2024-03-08T09:16:02;94618.69;;;6.80;100.00
39301;BME280;25019;42.626;23.380;2024-03-08T09:18:31;94517.34;;;6.25;100.00
39301;BME280;25019;42.626;23.380;2024-03-08T09:20:58;94612.31;;;6.69;100.00
39301;BME280;25019;42.626;23.380;2024-03-08T09:23:25;94581.13;;;6.40;100.00
39301;BME280;25019;42.626;23.380;2024-03-08T09:25:58;94613.34;;;6.68;100.00
39301;BME280;25019;42.626;23.380;2024-03-08T09:28:24;94593.59;;;6.70;100.00
39301;BME280;25019;42.626;23.380;2024-03-08T09:30:50;94624.28;;;7.27;100.00
39301;BME280;25019;42.626;23.380;2024-03-08T09:33:16;94410.25;;;6.05;100.00
39301;BME280;25019;42.626;23.380;2024-03-08T09:35:45;94508.06;;;6.41;100.00
39301;BME280;25019;42.626;23.380;2024-03-08T09:38:16;94641.59;;;7.04;100.00
39301;BME280;25019;42.626;23.380;2024-03-08T09:40:42;94525.63;;;6.28;100.00
39301;BME280;25019;42.626;23.380;2024-03-08T09:43:11;94519.34;;;6.67;100.00
39301;BME280;25019;42.626;23.380;2024-03-08T09:45:37;94508.78;;;6.85;100.00
39301;BME280;25019;42.626;23.380;2024-03-08T09:48:11;94606.84;;;7.99;100.00
39301;BME280;25019;42.626;23.380;2024-03-08T09:50:40;94633.38;;;8.35;100.00
39301;BME280;25019;42.626;23.380;2024-03-08T09:53:07;94506.44;;;7.69;96.51
39301;BME280;25019;42.626;23.380;2024-03-08T09:55:38;94464.41;;;7.37;93.06
39301;BME280;25019;42.626;23.380;2024-03-08T09:58:14;94625.94;;;8.79;90.60
39301;BME280;25019;42.626;23.380;2024-03-08T10:00:59;94601.63;;;8.35;82.81
39301;BME280;25019;42.626;23.380;2024-03-08T10:03:28;94561.22;;;8.04;85.33
39301;BME280;25019;42.626;23.380;2024-03-08T10:05:56;94606.97;;;8.59;83.40
39301;BME280;25019;42.626;23.380;2024-03-08T10:08:28;94594.03;;;8.27;81.70
39301;BME280;25019;42.626;23.380;2024-03-08T10:10:58;94554.78;;;8.23;83.09
39301;BME280;25019;42.626;23.380;2024-03-08T10:13:25;94451.72;;;7.69;82.36
39301;BME280;25019;42.626;23.380;2024-03-08T10:15:53;94568.34;;;8.39;83.48
39301;BME280;25019;42.626;23.380;2024-03-08T10:18:19;94625.03;;;8.74;83.54
39301;BME280;25019;42.626;23.380;2024-03-08T10:21:14;94638.84;;;8.76;83.38
39301;BME280;25019;42.626;23.380;2024-03-08T10:23:41;94503.81;;;8.16;83.83
39301;BME280;25019;42.626;23.380;2024-03-08T10:26:12;94621.78;;;8.95;83.61
39301;BME280;25019;42.626;23.380;2024-03-08T10:28:45;94583.25;;;8.64;82.17
39301;BME280;25019;42.626;23.380;2024-03-08T10:31:11;94530.31;;;7.62;82.38
39301;BME280;25019;42.626;23.380;2024-03-08T10:33:37;94485.34;;;7.38;84.13
39301;BME280;25019;42.626;23.380;2024-03-08T10:36:07;94559.88;;;7.40;85.48
39301;BME280;25019;42.626;23.380;2024-03-08T10:38:36;94597.13;;;7.81;85.24
39301;BME280;25019;42.626;23.380;2024-03-08T10:41:03;94615.53;;;8.42;85.02
39301;BME280;25019;42.626;23.380;2024-03-08T10:43:40;94511.41;;;7.89;84.63
39301;BME280;25019;42.626;23.380;2024-03-08T10:48:43;94462.06;;;7.94;83.21
39301;BME280;25019;42.626;23.380;2024-03-08T10:51:11;94536.25;;;8.47;83.01
39301;BME280;25019;42.626;23.380;2024-03-08T10:53:38;94488.78;;;8.05;81.46
39301;BME280;25019;42.626;23.380;2024-03-08T10:56:08;94610.47;;;8.29;82.83
39301;BME280;25019;42.626;23.380;2024-03-08T10:58:36;94520.34;;;7.64;82.30
39301;BME280;25019;42.626;23.380;2024-03-08T11:01:02;94538.06;;;7.87;81.90
39301;BME280;25019;42.626;23.380;2024-03-08T11:06:46;94601.66;;;8.82;79.97
39301;BME280;25019;42.626;23.380;2024-03-08T11:09:28;94592.78;;;8.89;78.38
39301;BME280;25019;42.626;23.380;2024-03-08T11:12:23;94587.28;;;9.19;78.28
39301;BME280;25019;42.626;23.380;2024-03-08T11:15:11;94596.44;;;8.99;77.95
39301;BME280;25019;42.626;23.380;2024-03-08T11:20:18;94585.19;;;8.68;79.20
39301;BME280;25019;42.626;23.380;2024-03-08T11:22:53;94587.28;;;8.66;81.19
39301;BME280;25019;42.626;23.380;2024-03-08T11:25:39;94578.53;;;8.78;80.48
39301;BME280;25019;42.626;23.380;2024-03-08T11:28:12;94457.13;;;8.10;81.19
39301;BME280;25019;42.626;23.380;2024-03-08T11:30:46;94455.50;;;8.09;80.76
39301;BME280;25019;42.626;23.380;2024-03-08T11:33:32;94558.84;;;8.50;80.01
39301;BME280;25019;42.626;23.380;2024-03-08T11:36:10;94514.50;;;7.98;82.13
39301;BME280;25019;42.626;23.380;2024-03-08T11:38:46;94561.91;;;8.11;83.39
39301;BME280;25019;42.626;23.380;2024-03-08T11:41:15;94385.72;;;6.84;84.36
39301;BME280;25019;42.626;23.380;2024-03-08T11:43:43;94456.28;;;7.08;83.63
39301;BME280;25019;42.626;23.380;2024-03-08T11:46:16;94494.75;;;7.03;84.73
39301;BME280;25019;42.626;23.380;2024-03-08T11:48:43;94481.38;;;6.68;84.90
39301;BME280;25019;42.626;23.380;2024-03-08T11:51:14;94539.69;;;7.15;85.89
39301;BME280;25019;42.626;23.380;2024-03-08T11:53:41;94542.13;;;6.98;86.40
39301;BME280;25019;42.626;23.380;2024-03-08T11:56:08;94386.66;;;6.29;84.87
39301;BME280;25019;42.626;23.380;2024-03-08T11:58:34;94572.44;;;7.87;85.52
39301;BME280;25019;42.626;23.380;2024-03-08T12:01:10;94399.19;;;6.95;82.10
39301;BME280;25019;42.626;23.380;2024-03-08T12:03:42;94508.41;;;7.97;81.82
39301;BME280;25019;42.626;23.380;2024-03-08T12:06:09;94463.88;;;7.70;80.67
39301;BME280;25019;42.626;23.380;2024-03-08T12:08:38;94525.22;;;8.27;78.25
39301;BME280;25019;42.626;23.380;2024-03-08T12:11:04;94454.94;;;7.95;77.36
39301;BME280;25019;42.626;23.380;2024-03-08T12:13:34;94478.66;;;7.90;77.29
39301;BME280;25019;42.626;23.380;2024-03-08T12:16:02;94557.00;;;8.50;78.32
39301;BME280;25019;42.626;23.380;2024-03-08T12:18:34;94557.78;;;8.51;78.26
39301;BME280;25019;42.626;23.380;2024-03-08T12:21:07;94472.19;;;7.74;77.57
39301;BME280;25019;42.626;23.380;2024-03-08T12:23:37;94563.72;;;7.87;79.26
39301;BME280;25019;42.626;23.380;2024-03-08T12:26:15;94491.00;;;7.54;79.71
39301;BME280;25019;42.626;23.380;2024-03-08T12:28:43;94563.03;;;7.91;80.41
39301;BME280;25019;42.626;23.380;2024-03-08T12:31:12;94493.06;;;7.52;80.37
39301;BME280;25019;42.626;23.380;2024-03-08T12:36:15;94534.19;;;7.90;80.23
39301;BME280;25019;42.626;23.380;2024-03-08T12:38:45;94466.50;;;7.46;78.60
39301;BME280;25019;42.626;23.380;2024-03-08T12:41:18;94499.78;;;7.66;77.93
39301;BME280;25019;42.626;23.380;2024-03-08T12:43:45;94342.53;;;6.67;77.56
39301;BME280;25019;42.626;23.380;2024-03-08T12:46:20;94521.03;;;7.83;77.62
39301;BME280;25019;42.626;23.380;2024-03-08T12:48:46;94543.16;;;8.13;77.86
39301;BME280;25019;42.626;23.380;2024-03-08T12:51:13;94462.50;;;7.44;79.44
39301;BME280;25019;42.626;23.380;2024-03-08T12:53:39;94446.38;;;7.33;81.08
39301;BME280;25019;42.626;23.380;2024-03-08T12:56:11;94474.69;;;7.57;81.68
39301;BME280;25019;42.626;23.380;2024-03-08T12:58:38;94441.97;;;7.27;81.23
39301;BME280;25019;42.626;23.380;2024-03-08T13:01:04;94540.78;;;7.69;81.87
39301;BME280;25019;42.626;23.380;2024-03-08T13:03:33;94438.13;;;6.99;81.19
39301;BME280;25019;42.626;23.380;2024-03-08T13:06:02;94537.91;;;7.70;81.11
39301;BME280;25019;42.626;23.380;2024-03-08T13:08:29;94544.34;;;7.74;79.87